sensor_id;sensor_type;location;lat;lon;timestamp;P1;durP1;ratioP1;P2;durP2;ratioP2
67757;SDS011;54562;47.620;18.786;2023-09-12T00:02:37;11.20;;;5.70;;
67757;SDS011;54562;47.620;18.786;2023-09-12T00:05:51;11.40;;;5.20;;
67757;SDS011;54562;47.620;18.786;2023-09-12T00:08:58;10.90;;;5.60;;
67757;SDS011;54562;47.620;18.786;2023-09-12T00:12:06;12.70;;;5.30;;
67757;SDS011;54562;47.620;18.786;2023-09-12T00:15:13;10.40;;;5.40;;
67757;SDS011;54562;47.620;18.786;2023-09-12T00:18:20;11.40;;;5.30;;
67757;SDS011;54562;47.620;18.786;2023-09-12T00:21:27;11.60;;;5.40;;
67757;SDS011;54562;47.620;18.786;2023-09-12T00:24:33;13.80;;;5.30;;
67757;SDS011;54562;47.620;18.786;2023-09-12T00:27:41;13.20;;;5.10;;
67757;SDS011;54562;47.620;18.786;2023-09-12T00:30:48;11.10;;;5.00;;
67757;SDS011;54562;47.620;18.786;2023-09-12T00:33:55;12.50;;;5.30;;
67757;SDS011;54562;47.620;18.786;2023-09-12T00:37:03;12.50;;;5.50;;
67757;SDS011;54562;47.620;18.786;2023-09-12T00:40:10;11.30;;;5.10;;
67757;SDS011;54562;47.620;18.786;2023-09-12T00:43:17;11.50;;;5.00;;
67757;SDS011;54562;47.620;18.786;2023-09-12T00:46:24;10.50;;;5.10;;
67757;SDS011;54562;47.620;18.786;2023-09-12T00:49:32;14.60;;;5.60;;
67757;SDS011;54562;47.620;18.786;2023-09-12T00:52:39;10.60;;;5.40;;
67757;SDS011;54562;47.620;18.786;2023-09-12T00:55:48;11.70;;;5.50;;
67757;SDS011;54562;47.620;18.786;2023-09-12T00:59:00;11.50;;;5.20;;
67757;SDS011;54562;47.620;18.786;2023-09-12T01:02:08;16.30;;;5.50;;
67757;SDS011;54562;47.620;18.786;2023-09-12T01:05:15;10.80;;;5.40;;
67757;SDS011;54562;47.620;18.786;2023-09-12T01:08:24;12.50;;;5.10;;
67757;SDS011;54562;47.620;18.786;2023-09-12T01:11:31;10.50;;;5.20;;
67757;SDS011;54562;47.620;18.786;2023-09-12T01:14:38;14.00;;;5.60;;
67757;SDS011;54562;47.620;18.786;2023-09-12T01:17:45;11.60;;;5.00;;
67757;SDS011;54562;47.620;18.786;2023-09-12T01:20:58;12.00;;;5.00;;
67757;SDS011;54562;47.620;18.786;2023-09-12T01:24:34;10.80;;;5.30;;
67757;SDS011;54562;47.620;18.786;2023-09-12T01:27:50;9.90;;;5.40;;
67757;SDS011;54562;47.620;18.786;2023-09-12T01:30:57;14.30;;;5.30;;
67757;SDS011;54562;47.620;18.786;2023-09-12T01:34:09;12.40;;;5.30;;
67757;SDS011;54562;47.620;18.786;2023-09-12T01:37:17;13.90;;;5.40;;
67757;SDS011;54562;47.620;18.786;2023-09-12T01:40:24;8.80;;;5.20;;
67757;SDS011;54562;47.620;18.786;2023-09-12T01:43:35;13.80;;;5.70;;
67757;SDS011;54562;47.620;18.786;2023-09-12T01:46:43;13.70;;;5.30;;
67757;SDS011;54562;47.620;18.786;2023-09-12T01:49:51;12.60;;;5.40;;
67757;SDS011;54562;47.620;18.786;2023-09-12T01:53:00;9.90;;;5.50;;
67757;SDS011;54562;47.620;18.786;2023-09-12T01:56:07;10.00;;;5.10;;
67757;SDS011;54562;47.620;18.786;2023-09-12T01:59:14;10.00;;;5.20;;
67757;SDS011;54562;47.620;18.786;2023-09-12T02:02:20;11.50;;;5.10;;
67757;SDS011;54562;47.620;18.786;2023-09-12T02:05:26;13.10;;;5.60;;
67757;SDS011;54562;47.620;18.786;2023-09-12T02:08:33;13.00;;;5.80;;
67757;SDS011;54562;47.620;18.786;2023-09-12T02:11:40;11.10;;;5.60;;
67757;SDS011;54562;47.620;18.786;2023-09-12T02:14:47;9.90;;;5.40;;
67757;SDS011;54562;47.620;18.786;2023-09-12T02:17:53;12.90;;;5.60;;
67757;SDS011;54562;47.620;18.786;2023-09-12T02:20:59;9.10;;;5.30;;
67757;SDS011;54562;47.620;18.786;2023-09-12T02:24:06;13.90;;;6.00;;
67757;SDS011;54562;47.620;18.786;2023-09-12T02:27:13;11.50;;;5.70;;
67757;SDS011;54562;47.620;18.786;2023-09-12T02:30:21;11.40;;;5.40;;
67757;SDS011;54562;47.620;18.786;2023-09-12T02:33:28;11.40;;;5.30;;
67757;SDS011;54562;47.620;18.786;2023-09-12T02:36:34;10.90;;;5.50;;
67757;SDS011;54562;47.620;18.786;2023-09-12T02:39:41;12.80;;;5.60;;
67757;SDS011;54562;47.620;18.786;2023-09-12T02:42:48;13.00;;;5.90;;
67757;SDS011;54562;47.620;18.786;2023-09-12T02:45:54;13.40;;;6.20;;
67757;SDS011;54562;47.620;18.786;2023-09-12T02:49:02;14.00;;;5.70;;
67757;SDS011;54562;47.620;18.786;2023-09-12T02:52:08;15.00;;;5.60;;
67757;SDS011;54562;47.620;18.786;2023-09-12T02:55:16;13.40;;;5.70;;
67757;SDS011;54562;47.620;18.786;2023-09-12T02:58:24;12.10;;;5.60;;
67757;SDS011;54562;47.620;18.786;2023-09-12T03:01:30;11.30;;;5.80;;
67757;SDS011;54562;47.620;18.786;2023-09-12T03:04:36;11.00;;;5.60;;
67757;SDS011;54562;47.620;18.786;2023-09-12T03:07:43;15.20;;;5.70;;
67757;SDS011;54562;47.620;18.786;2023-09-12T03:10:54;13.60;;;6.70;;
67757;SDS011;54562;47.620;18.786;2023-09-12T03:14:00;10.00;;;5.70;;
67757;SDS011;54562;47.620;18.786;2023-09-12T03:17:07;12.30;;;6.00;;
67757;SDS011;54562;47.620;18.786;2023-09-12T03:20:14;14.50;;;5.90;;
67757;SDS011;54562;47.620;18.786;2023-09-12T03:23:20;11.70;;;5.70;;
67757;SDS011;54562;47.620;18.786;2023-09-12T03:26:29;12.10;;;6.60;;
67757;SDS011;54562;47.620;18.786;2023-09-12T03:29:38;13.10;;;6.30;;
67757;SDS011;54562;47.620;18.786;2023-09-12T03:32:44;12.10;;;6.20;;
67757;SDS011;54562;47.620;18.786;2023-09-12T03:35:50;11.80;;;6.20;;
67757;SDS011;54562;47.620;18.786;2023-09-12T03:38:57;11.70;;;5.90;;
67757;SDS011;54562;47.620;18.786;2023-09-12T03:42:04;12.00;;;6.20;;
67757;SDS011;54562;47.620;18.786;2023-09-12T03:45:11;11.20;;;6.30;;
67757;SDS011;54562;47.620;18.786;2023-09-12T03:48:17;12.20;;;6.20;;
67757;SDS011;54562;47.620;18.786;2023-09-12T03:51:24;13.40;;;6.90;;
67757;SDS011;54562;47.620;18.786;2023-09-12T03:54:30;14.20;;;6.80;;
67757;SDS011;54562;47.620;18.786;2023-09-12T03:57:37;15.90;;;7.00;;
67757;SDS011;54562;47.620;18.786;2023-09-12T04:00:43;11.80;;;6.70;;
67757;SDS011;54562;47.620;18.786;2023-09-12T04:03:50;14.60;;;6.80;;
67757;SDS011;54562;47.620;18.786;2023-09-12T04:06:57;13.00;;;7.10;;
67757;SDS011;54562;47.620;18.786;2023-09-12T04:10:04;13.60;;;7.10;;
67757;SDS011;54562;47.620;18.786;2023-09-12T04:13:13;14.60;;;6.90;;
67757;SDS011;54562;47.620;18.786;2023-09-12T04:16:20;14.30;;;7.30;;
67757;SDS011;54562;47.620;18.786;2023-09-12T04:19:26;11.40;;;6.90;;
67757;SDS011;54562;47.620;18.786;2023-09-12T04:22:33;16.00;;;7.90;;
67757;SDS011;54562;47.620;18.786;2023-09-12T04:25:39;12.80;;;7.30;;
67757;SDS011;54562;47.620;18.786;2023-09-12T04:28:50;15.30;;;7.50;;
67757;SDS011;54562;47.620;18.786;2023-09-12T04:31:57;15.70;;;7.90;;
67757;SDS011;54562;47.620;18.786;2023-09-12T04:35:04;13.80;;;7.10;;
67757;SDS011;54562;47.620;18.786;2023-09-12T04:38:11;16.00;;;7.50;;
67757;SDS011;54562;47.620;18.786;2023-09-12T04:41:18;13.50;;;6.90;;
67757;SDS011;54562;47.620;18.786;2023-09-12T04:44:25;10.80;;;6.20;;
67757;SDS011;54562;47.620;18.786;2023-09-12T04:47:32;13.10;;;7.30;;
67757;SDS011;54562;47.620;18.786;2023-09-12T04:50:41;18.90;;;7.00;;
67757;SDS011;54562;47.620;18.786;2023-09-12T04:53:48;15.10;;;6.90;;
67757;SDS011;54562;47.620;18.786;2023-09-12T04:56:55;16.20;;;7.20;;
67757;SDS011;54562;47.620;18.786;2023-09-12T05:00:01;13.20;;;6.90;;
67757;SDS011;54562;47.620;18.786;2023-09-12T05:03:09;15.70;;;7.20;;
67757;SDS011;54562;47.620;18.786;2023-09-12T05:06:17;13.30;;;7.60;;
67757;SDS011;54562;47.620;18.786;2023-09-12T05:09:24;14.80;;;7.30;;
67757;SDS011;54562;47.620;18.786;2023-09-12T05:12:30;12.80;;;7.30;;
67757;SDS011;54562;47.620;18.786;2023-09-12T05:15:38;11.70;;;6.80;;
67757;SDS011;54562;47.620;18.786;2023-09-12T05:18:45;14.20;;;7.10;;
67757;SDS011;54562;47.620;18.786;2023-09-12T05:21:53;15.40;;;7.10;;
67757;SDS011;54562;47.620;18.786;2023-09-12T05:24:59;17.70;;;7.80;;
67757;SDS011;54562;47.620;18.786;2023-09-12T05:28:06;15.90;;;7.20;;
67757;SDS011;54562;47.620;18.786;2023-09-12T05:31:13;11.60;;;7.10;;
67757;SDS011;54562;47.620;18.786;2023-09-12T05:34:19;18.10;;;7.70;;
67757;SDS011;54562;47.620;18.786;2023-09-12T05:37:26;15.40;;;7.30;;
67757;SDS011;54562;47.620;18.786;2023-09-12T05:40:32;13.30;;;7.60;;
67757;SDS011;54562;47.620;18.786;2023-09-12T05:43:39;13.60;;;6.40;;
67757;SDS011;54562;47.620;18.786;2023-09-12T05:46:46;14.00;;;6.50;;
67757;SDS011;54562;47.620;18.786;2023-09-12T05:49:53;13.20;;;6.40;;
67757;SDS011;54562;47.620;18.786;2023-09-12T05:52:59;14.10;;;6.10;;
67757;SDS011;54562;47.620;18.786;2023-09-12T05:56:06;11.20;;;5.80;;
67757;SDS011;54562;47.620;18.786;2023-09-12T05:59:13;13.30;;;6.10;;
67757;SDS011;54562;47.620;18.786;2023-09-12T06:02:19;11.00;;;5.80;;
67757;SDS011;54562;47.620;18.786;2023-09-12T06:05:25;10.00;;;5.60;;
67757;SDS011;54562;47.620;18.786;2023-09-12T06:08:32;13.40;;;5.80;;
67757;SDS011;54562;47.620;18.786;2023-09-12T06:11:39;11.20;;;6.00;;
67757;SDS011;54562;47.620;18.786;2023-09-12T06:14:45;15.50;;;5.90;;
67757;SDS011;54562;47.620;18.786;2023-09-12T06:17:52;13.40;;;6.00;;
67757;SDS011;54562;47.620;18.786;2023-09-12T06:20:59;12.50;;;5.80;;
67757;SDS011;54562;47.620;18.786;2023-09-12T06:24:11;14.00;;;6.10;;
67757;SDS011;54562;47.620;18.786;2023-09-12T06:27:20;14.80;;;6.10;;
67757;SDS011;54562;47.620;18.786;2023-09-12T06:30:26;13.00;;;5.80;;
67757;SDS011;54562;47.620;18.786;2023-09-12T06:33:33;11.90;;;6.30;;
67757;SDS011;54562;47.620;18.786;2023-09-12T06:36:39;11.80;;;6.30;;
67757;SDS011;54562;47.620;18.786;2023-09-12T06:39:50;16.50;;;6.20;;
67757;SDS011;54562;47.620;18.786;2023-09-12T06:42:57;11.40;;;5.80;;
67757;SDS011;54562;47.620;18.786;2023-09-12T06:46:03;13.20;;;6.00;;
67757;SDS011;54562;47.620;18.786;2023-09-12T06:49:10;13.50;;;5.60;;
67757;SDS011;54562;47.620;18.786;2023-09-12T06:52:16;11.20;;;5.90;;
67757;SDS011;54562;47.620;18.786;2023-09-12T06:55:23;11.80;;;5.50;;
67757;SDS011;54562;47.620;18.786;2023-09-12T06:58:30;11.00;;;5.60;;
67757;SDS011;54562;47.620;18.786;2023-09-12T07:01:37;10.00;;;5.50;;
67757;SDS011;54562;47.620;18.786;2023-09-12T07:04:43;11.70;;;5.50;;
67757;SDS011;54562;47.620;18.786;2023-09-12T07:07:50;11.80;;;5.40;;
67757;SDS011;54562;47.620;18.786;2023-09-12T07:10:57;17.00;;;5.70;;
67757;SDS011;54562;47.620;18.786;2023-09-12T07:14:09;12.90;;;5.80;;
67757;SDS011;54562;47.620;18.786;2023-09-12T07:17:15;11.70;;;6.10;;
67757;SDS011;54562;47.620;18.786;2023-09-12T07:20:22;13.70;;;6.20;;
67757;SDS011;54562;47.620;18.786;2023-09-12T07:23:28;11.60;;;5.90;;
67757;SDS011;54562;47.620;18.786;2023-09-12T07:26:35;10.00;;;5.30;;
67757;SDS011;54562;47.620;18.786;2023-09-12T07:29:42;13.60;;;5.60;;
67757;SDS011;54562;47.620;18.786;2023-09-12T07:32:48;10.10;;;5.60;;
67757;SDS011;54562;47.620;18.786;2023-09-12T07:35:55;10.00;;;5.80;;
67757;SDS011;54562;47.620;18.786;2023-09-12T07:39:03;11.50;;;6.10;;
67757;SDS011;54562;47.620;18.786;2023-09-12T07:42:10;14.60;;;5.90;;
67757;SDS011;54562;47.620;18.786;2023-09-12T07:45:16;12.00;;;6.00;;
67757;SDS011;54562;47.620;18.786;2023-09-12T07:48:23;10.60;;;5.50;;
67757;SDS011;54562;47.620;18.786;2023-09-12T07:51:31;12.00;;;5.90;;
67757;SDS011;54562;47.620;18.786;2023-09-12T07:54:37;10.20;;;6.00;;
67757;SDS011;54562;47.620;18.786;2023-09-12T07:57:43;9.10;;;5.80;;
67757;SDS011;54562;47.620;18.786;2023-09-12T08:00:50;12.10;;;5.80;;
67757;SDS011;54562;47.620;18.786;2023-09-12T08:03:56;10.00;;;5.80;;
67757;SDS011;54562;47.620;18.786;2023-09-12T08:07:04;12.30;;;5.80;;
67757;SDS011;54562;47.620;18.786;2023-09-12T08:10:10;12.90;;;5.60;;
67757;SDS011;54562;47.620;18.786;2023-09-12T08:13:17;12.20;;;5.10;;
67757;SDS011;54562;47.620;18.786;2023-09-12T08:16:24;10.80;;;5.00;;
67757;SDS011;54562;47.620;18.786;2023-09-12T08:19:30;10.70;;;5.40;;
67757;SDS011;54562;47.620;18.786;2023-09-12T08:22:36;10.80;;;5.20;;
67757;SDS011;54562;47.620;18.786;2023-09-12T08:25:43;14.60;;;5.70;;
67757;SDS011;54562;47.620;18.786;2023-09-12T08:28:49;9.80;;;5.30;;
67757;SDS011;54562;47.620;18.786;2023-09-12T08:31:55;9.50;;;5.20;;
67757;SDS011;54562;47.620;18.786;2023-09-12T08:35:05;12.30;;;5.00;;
67757;SDS011;54562;47.620;18.786;2023-09-12T08:38:13;13.60;;;5.30;;
67757;SDS011;54562;47.620;18.786;2023-09-12T08:41:19;10.30;;;5.30;;
67757;SDS011;54562;47.620;18.786;2023-09-12T08:44:25;13.00;;;5.70;;
67757;SDS011;54562;47.620;18.786;2023-09-12T08:47:32;11.50;;;5.40;;
67757;SDS011;54562;47.620;18.786;2023-09-12T08:50:39;10.20;;;4.80;;
67757;SDS011;54562;47.620;18.786;2023-09-12T08:53:45;10.00;;;4.90;;
67757;SDS011;54562;47.620;18.786;2023-09-12T08:56:51;8.90;;;4.70;;
67757;SDS011;54562;47.620;18.786;2023-09-12T08:59:59;7.80;;;4.60;;
67757;SDS011;54562;47.620;18.786;2023-09-12T09:03:07;9.40;;;4.30;;
67757;SDS011;54562;47.620;18.786;2023-09-12T09:06:14;9.30;;;4.50;;
67757;SDS011;54562;47.620;18.786;2023-09-12T09:09:22;9.60;;;4.20;;
67757;SDS011;54562;47.620;18.786;2023-09-12T09:12:29;10.70;;;4.60;;
67757;SDS011;54562;47.620;18.786;2023-09-12T09:15:37;11.70;;;4.50;;
67757;SDS011;54562;47.620;18.786;2023-09-12T09:18:52;8.10;;;4.30;;
67757;SDS011;54562;47.620;18.786;2023-09-12T09:22:06;11.80;;;4.20;;
67757;SDS011;54562;47.620;18.786;2023-09-12T09:25:12;10.50;;;4.40;;
67757;SDS011;54562;47.620;18.786;2023-09-12T09:28:19;11.20;;;4.70;;
67757;SDS011;54562;47.620;18.786;2023-09-12T09:31:27;12.50;;;4.40;;
67757;SDS011;54562;47.620;18.786;2023-09-12T09:34:35;10.00;;;4.20;;
67757;SDS011;54562;47.620;18.786;2023-09-12T09:37:45;9.40;;;4.20;;
67757;SDS011;54562;47.620;18.786;2023-09-12T09:40:53;9.50;;;4.40;;
67757;SDS011;54562;47.620;18.786;2023-09-12T09:44:00;10.40;;;4.40;;
67757;SDS011;54562;47.620;18.786;2023-09-12T09:47:07;8.10;;;4.10;;
67757;SDS011;54562;47.620;18.786;2023-09-12T09:50:15;9.80;;;3.90;;
67757;SDS011;54562;47.620;18.786;2023-09-12T09:53:22;9.10;;;4.20;;
67757;SDS011;54562;47.620;18.786;2023-09-12T09:56:32;10.20;;;4.50;;
67757;SDS011;54562;47.620;18.786;2023-09-12T09:59:51;12.90;;;4.60;;
67757;SDS011;54562;47.620;18.786;2023-09-12T10:02:57;9.00;;;4.60;;
67757;SDS011;54562;47.620;18.786;2023-09-12T10:06:04;11.00;;;4.50;;
67757;SDS011;54562;47.620;18.786;2023-09-12T10:09:11;13.10;;;4.70;;
67757;SDS011;54562;47.620;18.786;2023-09-12T10:12:18;14.40;;;4.70;;
67757;SDS011;54562;47.620;18.786;2023-09-12T10:15:25;10.00;;;4.60;;
67757;SDS011;54562;47.620;18.786;2023-09-12T10:18:35;9.00;;;5.00;;
67757;SDS011;54562;47.620;18.786;2023-09-12T10:21:48;8.70;;;4.40;;
67757;SDS011;54562;47.620;18.786;2023-09-12T10:24:58;10.10;;;4.40;;
67757;SDS011;54562;47.620;18.786;2023-09-12T10:28:06;7.90;;;4.50;;
67757;SDS011;54562;47.620;18.786;2023-09-12T10:31:13;9.60;;;4.40;;
67757;SDS011;54562;47.620;18.786;2023-09-12T10:34:21;11.70;;;4.70;;
67757;SDS011;54562;47.620;18.786;2023-09-12T10:37:30;12.00;;;5.10;;
67757;SDS011;54562;47.620;18.786;2023-09-12T10:40:37;11.80;;;4.70;;
67757;SDS011;54562;47.620;18.786;2023-09-12T10:43:47;11.30;;;5.10;;
67757;SDS011;54562;47.620;18.786;2023-09-12T10:46:57;14.80;;;5.10;;
67757;SDS011;54562;47.620;18.786;2023-09-12T11:01:22;12.00;;;5.60;;
67757;SDS011;54562;47.620;18.786;2023-09-12T11:04:34;13.60;;;5.40;;
67757;SDS011;54562;47.620;18.786;2023-09-12T11:07:47;14.10;;;5.60;;
67757;SDS011;54562;47.620;18.786;2023-09-12T11:14:24;12.80;;;5.30;;
67757;SDS011;54562;47.620;18.786;2023-09-12T11:17:32;12.90;;;5.20;;
67757;SDS011;54562;47.620;18.786;2023-09-12T11:20:51;9.10;;;4.70;;
67757;SDS011;54562;47.620;18.786;2023-09-12T11:24:03;8.70;;;5.00;;
67757;SDS011;54562;47.620;18.786;2023-09-12T11:27:11;28.50;;;5.70;;
67757;SDS011;54562;47.620;18.786;2023-09-12T11:30:18;12.10;;;5.30;;
67757;SDS011;54562;47.620;18.786;2023-09-12T11:33:26;16.00;;;5.30;;
67757;SDS011;54562;47.620;18.786;2023-09-12T11:36:38;11.40;;;5.20;;
67757;SDS011;54562;47.620;18.786;2023-09-12T11:39:46;11.50;;;5.10;;
67757;SDS011;54562;47.620;18.786;2023-09-12T11:42:54;13.80;;;4.80;;
67757;SDS011;54562;47.620;18.786;2023-09-12T11:46:03;11.40;;;4.60;;
67757;SDS011;54562;47.620;18.786;2023-09-12T11:49:11;10.30;;;5.00;;
67757;SDS011;54562;47.620;18.786;2023-09-12T11:52:19;14.30;;;5.10;;
67757;SDS011;54562;47.620;18.786;2023-09-12T11:55:28;13.80;;;4.60;;
67757;SDS011;54562;47.620;18.786;2023-09-12T11:58:36;12.80;;;5.10;;
67757;SDS011;54562;47.620;18.786;2023-09-12T12:01:43;13.70;;;4.90;;
67757;SDS011;54562;47.620;18.786;2023-09-12T12:04:50;10.50;;;4.40;;
67757;SDS011;54562;47.620;18.786;2023-09-12T12:07:58;13.70;;;4.90;;
67757;SDS011;54562;47.620;18.786;2023-09-12T12:11:24;12.90;;;4.60;;
67757;SDS011;54562;47.620;18.786;2023-09-12T12:14:34;14.10;;;4.70;;
67757;SDS011;54562;47.620;18.786;2023-09-12T12:17:41;13.90;;;4.90;;
67757;SDS011;54562;47.620;18.786;2023-09-12T12:20:48;10.90;;;4.70;;
67757;SDS011;54562;47.620;18.786;2023-09-12T12:24:00;12.90;;;5.30;;
67757;SDS011;54562;47.620;18.786;2023-09-12T12:27:07;11.70;;;4.90;;
67757;SDS011;54562;47.620;18.786;2023-09-12T12:30:14;15.40;;;5.00;;
67757;SDS011;54562;47.620;18.786;2023-09-12T12:33:22;19.30;;;5.10;;
67757;SDS011;54562;47.620;18.786;2023-09-12T12:36:50;12.10;;;5.20;;
67757;SDS011;54562;47.620;18.786;2023-09-12T12:40:01;14.90;;;5.50;;
67757;SDS011;54562;47.620;18.786;2023-09-12T12:43:16;13.20;;;4.80;;
67757;SDS011;54562;47.620;18.786;2023-09-12T12:46:24;20.40;;;5.10;;
67757;SDS011;54562;47.620;18.786;2023-09-12T12:49:35;17.60;;;5.20;;
67757;SDS011;54562;47.620;18.786;2023-09-12T12:52:42;10.80;;;5.10;;
67757;SDS011;54562;47.620;18.786;2023-09-12T12:55:50;15.70;;;5.10;;
67757;SDS011;54562;47.620;18.786;2023-09-12T12:58:57;19.30;;;5.50;;
67757;SDS011;54562;47.620;18.786;2023-09-12T13:02:06;20.00;;;5.30;;
67757;SDS011;54562;47.620;18.786;2023-09-12T13:05:20;14.00;;;5.00;;
67757;SDS011;54562;47.620;18.786;2023-09-12T13:08:28;14.00;;;5.00;;
67757;SDS011;54562;47.620;18.786;2023-09-12T13:11:35;11.70;;;5.00;;
67757;SDS011;54562;47.620;18.786;2023-09-12T13:14:43;12.60;;;4.60;;
67757;SDS011;54562;47.620;18.786;2023-09-12T13:17:49;14.20;;;5.10;;
67757;SDS011;54562;47.620;18.786;2023-09-12T13:20:56;10.30;;;4.80;;
67757;SDS011;54562;47.620;18.786;2023-09-12T13:24:03;14.90;;;4.70;;
67757;SDS011;54562;47.620;18.786;2023-09-12T13:27:11;12.50;;;5.20;;
67757;SDS011;54562;47.620;18.786;2023-09-12T13:30:18;16.00;;;4.80;;
67757;SDS011;54562;47.620;18.786;2023-09-12T13:33:25;12.30;;;4.90;;
67757;SDS011;54562;47.620;18.786;2023-09-12T13:36:31;11.30;;;4.80;;
67757;SDS011;54562;47.620;18.786;2023-09-12T13:39:38;14.60;;;4.50;;
67757;SDS011;54562;47.620;18.786;2023-09-12T13:42:44;10.70;;;4.70;;
67757;SDS011;54562;47.620;18.786;2023-09-12T13:45:51;11.30;;;4.20;;
67757;SDS011;54562;47.620;18.786;2023-09-12T13:48:58;11.10;;;4.30;;
67757;SDS011;54562;47.620;18.786;2023-09-12T13:52:07;12.70;;;4.40;;
67757;SDS011;54562;47.620;18.786;2023-09-12T13:55:13;11.40;;;4.30;;
67757;SDS011;54562;47.620;18.786;2023-09-12T13:58:40;13.10;;;4.60;;
67757;SDS011;54562;47.620;18.786;2023-09-12T14:01:50;13.00;;;4.30;;
67757;SDS011;54562;47.620;18.786;2023-09-12T14:04:58;15.70;;;4.70;;
67757;SDS011;54562;47.620;18.786;2023-09-12T14:08:15;14.20;;;4.70;;
67757;SDS011;54562;47.620;18.786;2023-09-12T14:11:23;15.30;;;4.60;;
67757;SDS011;54562;47.620;18.786;2023-09-12T14:14:39;12.90;;;4.70;;
67757;SDS011;54562;47.620;18.786;2023-09-12T14:17:52;12.90;;;4.50;;
67757;SDS011;54562;47.620;18.786;2023-09-12T14:21:00;12.50;;;4.60;;
67757;SDS011;54562;47.620;18.786;2023-09-12T14:24:08;13.40;;;4.40;;
67757;SDS011;54562;47.620;18.786;2023-09-12T14:27:16;14.60;;;4.70;;
67757;SDS011;54562;47.620;18.786;2023-09-12T14:30:29;15.50;;;4.60;;
67757;SDS011;54562;47.620;18.786;2023-09-12T14:33:39;11.80;;;4.30;;
67757;SDS011;54562;47.620;18.786;2023-09-12T14:36:46;13.80;;;4.20;;
67757;SDS011;54562;47.620;18.786;2023-09-12T14:39:53;12.70;;;4.50;;
67757;SDS011;54562;47.620;18.786;2023-09-12T14:43:00;13.10;;;4.40;;
67757;SDS011;54562;47.620;18.786;2023-09-12T14:46:08;14.70;;;4.50;;
67757;SDS011;54562;47.620;18.786;2023-09-12T14:49:16;14.60;;;4.70;;
67757;SDS011;54562;47.620;18.786;2023-09-12T14:52:24;13.90;;;4.70;;
67757;SDS011;54562;47.620;18.786;2023-09-12T14:55:33;13.90;;;4.80;;
67757;SDS011;54562;47.620;18.786;2023-09-12T14:58:40;13.80;;;4.50;;
67757;SDS011;54562;47.620;18.786;2023-09-12T15:01:47;14.70;;;4.30;;
67757;SDS011;54562;47.620;18.786;2023-09-12T15:04:53;12.80;;;4.80;;
67757;SDS011;54562;47.620;18.786;2023-09-12T15:08:00;14.10;;;4.30;;
67757;SDS011;54562;47.620;18.786;2023-09-12T15:11:07;12.00;;;4.50;;
67757;SDS011;54562;47.620;18.786;2023-09-12T15:14:14;15.60;;;4.80;;
67757;SDS011;54562;47.620;18.786;2023-09-12T15:17:21;10.10;;;4.40;;
67757;SDS011;54562;47.620;18.786;2023-09-12T15:20:28;12.40;;;4.20;;
67757;SDS011;54562;47.620;18.786;2023-09-12T15:23:36;17.30;;;4.50;;
67757;SDS011;54562;47.620;18.786;2023-09-12T15:26:43;12.10;;;4.40;;
67757;SDS011;54562;47.620;18.786;2023-09-12T15:29:51;14.10;;;4.40;;
67757;SDS011;54562;47.620;18.786;2023-09-12T15:32:58;16.20;;;4.20;;
67757;SDS011;54562;47.620;18.786;2023-09-12T15:36:08;14.90;;;4.50;;
67757;SDS011;54562;47.620;18.786;2023-09-12T15:39:14;13.10;;;4.10;;
67757;SDS011;54562;47.620;18.786;2023-09-12T15:42:21;14.90;;;4.00;;
67757;SDS011;54562;47.620;18.786;2023-09-12T15:45:39;14.30;;;4.20;;
67757;SDS011;54562;47.620;18.786;2023-09-12T15:48:53;11.50;;;4.10;;
67757;SDS011;54562;47.620;18.786;2023-09-12T15:52:00;11.60;;;4.40;;
67757;SDS011;54562;47.620;18.786;2023-09-12T15:55:07;12.40;;;4.30;;
67757;SDS011;54562;47.620;18.786;2023-09-12T15:58:15;17.30;;;4.20;;
67757;SDS011;54562;47.620;18.786;2023-09-12T16:01:22;16.60;;;4.60;;
67757;SDS011;54562;47.620;18.786;2023-09-12T16:04:29;15.50;;;4.60;;
67757;SDS011;54562;47.620;18.786;2023-09-12T16:07:35;17.20;;;4.50;;
67757;SDS011;54562;47.620;18.786;2023-09-12T16:10:42;16.50;;;4.40;;
67757;SDS011;54562;47.620;18.786;2023-09-12T16:13:49;23.10;;;4.70;;
67757;SDS011;54562;47.620;18.786;2023-09-12T16:16:55;20.60;;;4.80;;
67757;SDS011;54562;47.620;18.786;2023-09-12T16:20:03;14.50;;;4.40;;
67757;SDS011;54562;47.620;18.786;2023-09-12T16:23:12;22.10;;;4.80;;
67757;SDS011;54562;47.620;18.786;2023-09-12T16:26:19;24.40;;;4.60;;
67757;SDS011;54562;47.620;18.786;2023-09-12T16:29:26;17.10;;;4.20;;
67757;SDS011;54562;47.620;18.786;2023-09-12T16:32:33;16.80;;;4.50;;
67757;SDS011;54562;47.620;18.786;2023-09-12T16:35:39;40.20;;;5.30;;
67757;SDS011;54562;47.620;18.786;2023-09-12T16:38:46;16.70;;;4.70;;
67757;SDS011;54562;47.620;18.786;2023-09-12T16:41:53;14.80;;;4.50;;
67757;SDS011;54562;47.620;18.786;2023-09-12T16:44:59;16.70;;;4.50;;
67757;SDS011;54562;47.620;18.786;2023-09-12T16:48:08;14.80;;;4.60;;
67757;SDS011;54562;47.620;18.786;2023-09-12T16:51:15;29.40;;;4.70;;
67757;SDS011;54562;47.620;18.786;2023-09-12T16:54:21;16.40;;;4.30;;
67757;SDS011;54562;47.620;18.786;2023-09-12T16:57:28;16.40;;;4.10;;
67757;SDS011;54562;47.620;18.786;2023-09-12T17:00:34;15.60;;;4.30;;
67757;SDS011;54562;47.620;18.786;2023-09-12T17:03:43;29.20;;;5.00;;
67757;SDS011;54562;47.620;18.786;2023-09-12T17:06:50;25.00;;;4.90;;
67757;SDS011;54562;47.620;18.786;2023-09-12T17:09:56;19.50;;;4.30;;
67757;SDS011;54562;47.620;18.786;2023-09-12T17:13:03;14.60;;;4.50;;
67757;SDS011;54562;47.620;18.786;2023-09-12T17:16:10;18.30;;;4.70;;
67757;SDS011;54562;47.620;18.786;2023-09-12T17:19:16;15.30;;;4.30;;
67757;SDS011;54562;47.620;18.786;2023-09-12T17:22:23;15.10;;;4.60;;
67757;SDS011;54562;47.620;18.786;2023-09-12T17:25:30;24.80;;;4.70;;
67757;SDS011;54562;47.620;18.786;2023-09-12T17:28:39;17.10;;;5.20;;
67757;SDS011;54562;47.620;18.786;2023-09-12T17:31:46;16.40;;;5.10;;
67757;SDS011;54562;47.620;18.786;2023-09-12T17:34:54;12.20;;;4.60;;
67757;SDS011;54562;47.620;18.786;2023-09-12T17:38:03;18.50;;;5.00;;
67757;SDS011;54562;47.620;18.786;2023-09-12T17:41:09;13.00;;;4.40;;
67757;SDS011;54562;47.620;18.786;2023-09-12T17:44:16;15.00;;;4.40;;
67757;SDS011;54562;47.620;18.786;2023-09-12T17:47:24;13.90;;;4.70;;
67757;SDS011;54562;47.620;18.786;2023-09-12T17:50:32;12.90;;;4.50;;
67757;SDS011;54562;47.620;18.786;2023-09-12T17:53:39;14.60;;;5.10;;
67757;SDS011;54562;47.620;18.786;2023-09-12T17:56:45;16.20;;;4.60;;
67757;SDS011;54562;47.620;18.786;2023-09-12T17:59:53;14.50;;;5.00;;
67757;SDS011;54562;47.620;18.786;2023-09-12T18:02:59;11.60;;;4.70;;
67757;SDS011;54562;47.620;18.786;2023-09-12T18:06:06;9.90;;;4.80;;
67757;SDS011;54562;47.620;18.786;2023-09-12T18:09:14;11.80;;;4.50;;
67757;SDS011;54562;47.620;18.786;2023-09-12T18:12:20;14.50;;;4.50;;
67757;SDS011;54562;47.620;18.786;2023-09-12T18:15:27;16.50;;;4.90;;
67757;SDS011;54562;47.620;18.786;2023-09-12T18:18:35;14.10;;;4.80;;
67757;SDS011;54562;47.620;18.786;2023-09-12T18:21:41;15.40;;;5.00;;
67757;SDS011;54562;47.620;18.786;2023-09-12T18:24:48;14.20;;;4.90;;
67757;SDS011;54562;47.620;18.786;2023-09-12T18:27:55;17.20;;;4.70;;
67757;SDS011;54562;47.620;18.786;2023-09-12T18:31:02;14.40;;;4.60;;
67757;SDS011;54562;47.620;18.786;2023-09-12T18:34:10;14.30;;;4.50;;
67757;SDS011;54562;47.620;18.786;2023-09-12T18:37:19;13.90;;;4.50;;